sensor_id;sensor_type;location;lat;lon;timestamp;pressure;altitude;pressure_sealevel;temperature
76541;BMP280;65385;55.772;37.658;2023-02-15T00:00:30;99982.81;;;-1.68
76541;BMP280;65385;55.772;37.658;2023-02-15T00:01:31;99994.44;;;-1.58
76541;BMP280;65385;55.772;37.658;2023-02-15T00:02:31;100003.91;;;-1.66
76541;BMP280;65385;55.772;37.658;2023-02-15T00:03:32;100003.44;;;-1.62
76541;BMP280;65385;55.772;37.658;2023-02-15T00:04:32;100001.84;;;-1.63
76541;BMP280;65385;55.772;37.658;2023-02-15T00:05:48;100022.19;;;-1.61
76541;BMP280;65385;55.772;37.658;2023-02-15T00:06:49;100013.22;;;-1.65
76541;BMP280;65385;55.772;37.658;2023-02-15T00:07:50;100005.81;;;-1.60
76541;BMP280;65385;55.772;37.658;2023-02-15T00:08:50;99997.84;;;-1.65
76541;BMP280;65385;55.772;37.658;2023-02-15T00:09:51;100029.56;;;-1.66
76541;BMP280;65385;55.772;37.658;2023-02-15T00:10:51;100001.72;;;-1.69
76541;BMP280;65385;55.772;37.658;2023-02-15T00:11:52;99995.78;;;-1.70
76541;BMP280;65385;55.772;37.658;2023-02-15T00:12:52;99991.25;;;-1.68
76541;BMP280;65385;55.772;37.658;2023-02-15T00:13:53;100000.56;;;-1.67
76541;BMP280;65385;55.772;37.658;2023-02-15T00:14:54;100000.91;;;-1.70
76541;BMP280;65385;55.772;37.658;2023-02-15T00:16:00;100013.56;;;-1.68
76541;BMP280;65385;55.772;37.658;2023-02-15T00:17:01;100020.44;;;-1.69
76541;BMP280;65385;55.772;37.658;2023-02-15T00:18:01;99998.19;;;-1.68
76541;BMP280;65385;55.772;37.658;2023-02-15T00:19:02;100004.09;;;-1.68
76541;BMP280;65385;55.772;37.658;2023-02-15T00:20:03;99997.38;;;-1.69
76541;BMP280;65385;55.772;37.658;2023-02-15T00:21:06;100002.97;;;-1.65
76541;BMP280;65385;55.772;37.658;2023-02-15T00:22:07;100011.28;;;-1.63
76541;BMP280;65385;55.772;37.658;2023-02-15T00:23:08;100006.84;;;-1.69
76541;BMP280;65385;55.772;37.658;2023-02-15T00:24:11;100028.28;;;-1.62
76541;BMP280;65385;55.772;37.658;2023-02-15T00:25:11;99992.38;;;-1.62
76541;BMP280;65385;55.772;37.658;2023-02-15T00:26:12;100021.53;;;-1.63
76541;BMP280;65385;55.772;37.658;2023-02-15T00:27:15;99988.38;;;-1.65
76541;BMP280;65385;55.772;37.658;2023-02-15T00:28:16;100009.06;;;-1.66
76541;BMP280;65385;55.772;37.658;2023-02-15T00:29:18;100021.06;;;-1.67
76541;BMP280;65385;55.772;37.658;2023-02-15T00:30:19;100016.13;;;-1.68
76541;BMP280;65385;55.772;37.658;2023-02-15T00:31:20;99978.78;;;-1.63
76541;BMP280;65385;55.772;37.658;2023-02-15T00:32:20;100002.81;;;-1.64
76541;BMP280;65385;55.772;37.658;2023-02-15T00:33:24;100020.75;;;-1.64
76541;BMP280;65385;55.772;37.658;2023-02-15T00:34:27;99999.44;;;-1.64
76541;BMP280;65385;55.772;37.658;2023-02-15T00:35:28;100005.50;;;-1.57
76541;BMP280;65385;55.772;37.658;2023-02-15T00:36:28;100013.50;;;-1.60
76541;BMP280;65385;55.772;37.658;2023-02-15T00:37:29;100005.69;;;-1.67
76541;BMP280;65385;55.772;37.658;2023-02-15T00:38:30;100020.75;;;-1.64
76541;BMP280;65385;55.772;37.658;2023-02-15T00:39:31;100019.16;;;-1.65
76541;BMP280;65385;55.772;37.658;2023-02-15T00:40:32;100012.53;;;-1.59
76541;BMP280;65385;55.772;37.658;2023-02-15T00:41:33;99994.31;;;-1.64
76541;BMP280;65385;55.772;37.658;2023-02-15T00:42:34;100010.50;;;-1.64
76541;BMP280;65385;55.772;37.658;2023-02-15T00:43:35;100037.09;;;-1.65
76541;BMP280;65385;55.772;37.658;2023-02-15T00:44:36;99985.97;;;-1.66
76541;BMP280;65385;55.772;37.658;2023-02-15T00:45:37;100036.94;;;-1.63
76541;BMP280;65385;55.772;37.658;2023-02-15T00:46:37;100028.59;;;-1.65
76541;BMP280;65385;55.772;37.658;2023-02-15T00:47:38;100023.31;;;-1.72
76541;BMP280;65385;55.772;37.658;2023-02-15T00:48:39;100006.47;;;-1.66
76541;BMP280;65385;55.772;37.658;2023-02-15T00:49:39;100036.28;;;-1.65
76541;BMP280;65385;55.772;37.658;2023-02-15T00:50:40;100030.19;;;-1.64
76541;BMP280;65385;55.772;37.658;2023-02-15T00:51:41;100010.34;;;-1.70
76541;BMP280;65385;55.772;37.658;2023-02-15T00:52:42;100015.94;;;-1.67
76541;BMP280;65385;55.772;37.658;2023-02-15T00:53:43;100021.41;;;-1.70
76541;BMP280;65385;55.772;37.658;2023-02-15T00:54:44;99996.59;;;-1.69
76541;BMP280;65385;55.772;37.658;2023-02-15T00:55:45;100004.28;;;-1.69
76541;BMP280;65385;55.772;37.658;2023-02-15T00:56:46;100022.22;;;-1.69
76541;BMP280;65385;55.772;37.658;2023-02-15T00:57:46;100029.25;;;-1.71
76541;BMP280;65385;55.772;37.658;2023-02-15T00:58:47;100014.69;;;-1.71
76541;BMP280;65385;55.772;37.658;2023-02-15T00:59:47;100035.03;;;-1.69
76541;BMP280;65385;55.772;37.658;2023-02-15T01:00:49;100027.16;;;-1.68
76541;BMP280;65385;55.772;37.658;2023-02-15T01:01:50;100019.00;;;-1.71
76541;BMP280;65385;55.772;37.658;2023-02-15T01:02:50;100022.06;;;-1.76
76541;BMP280;65385;55.772;37.658;2023-02-15T01:03:51;100031.19;;;-1.73
76541;BMP280;65385;55.772;37.658;2023-02-15T01:04:51;99989.50;;;-1.67
76541;BMP280;65385;55.772;37.658;2023-02-15T01:05:52;100026.53;;;-1.70
76541;BMP280;65385;55.772;37.658;2023-02-15T01:06:53;100025.38;;;-1.67
76541;BMP280;65385;55.772;37.658;2023-02-15T01:07:54;100020.25;;;-1.67
76541;BMP280;65385;55.772;37.658;2023-02-15T01:08:54;100026.38;;;-1.68
76541;BMP280;65385;55.772;37.658;2023-02-15T01:09:55;100020.59;;;-1.70
76541;BMP280;65385;55.772;37.658;2023-02-15T01:10:56;100022.81;;;-1.67
76541;BMP280;65385;55.772;37.658;2023-02-15T01:11:56;100029.72;;;-1.68
76541;BMP280;65385;55.772;37.658;2023-02-15T01:12:57;100021.25;;;-1.68
76541;BMP280;65385;55.772;37.658;2023-02-15T01:13:58;100039.97;;;-1.68
76541;BMP280;65385;55.772;37.658;2023-02-15T01:14:58;100010.66;;;-1.73
76541;BMP280;65385;55.772;37.658;2023-02-15T01:15:59;100024.78;;;-1.69
76541;BMP280;65385;55.772;37.658;2023-02-15T01:17:00;100046.25;;;-1.70
76541;BMP280;65385;55.772;37.658;2023-02-15T01:18:00;100027.19;;;-1.76
76541;BMP280;65385;55.772;37.658;2023-02-15T01:19:01;100037.91;;;-1.72
76541;BMP280;65385;55.772;37.658;2023-02-15T01:20:03;100027.66;;;-1.72
76541;BMP280;65385;55.772;37.658;2023-02-15T01:21:14;100024.28;;;-1.73
76541;BMP280;65385;55.772;37.658;2023-02-15T01:22:18;100044.16;;;-1.75
76541;BMP280;65385;55.772;37.658;2023-02-15T01:23:19;100044.63;;;-1.71
76541;BMP280;65385;55.772;37.658;2023-02-15T01:24:20;100033.25;;;-1.69
76541;BMP280;65385;55.772;37.658;2023-02-15T01:25:22;100023.66;;;-1.75
76541;BMP280;65385;55.772;37.658;2023-02-15T01:26:23;100030.38;;;-1.74
76541;BMP280;65385;55.772;37.658;2023-02-15T01:27:23;100045.75;;;-1.74
76541;BMP280;65385;55.772;37.658;2023-02-15T01:28:24;100042.38;;;-1.74
76541;BMP280;65385;55.772;37.658;2023-02-15T01:29:25;100045.28;;;-1.77
76541;BMP280;65385;55.772;37.658;2023-02-15T01:30:25;100036.00;;;-1.78
76541;BMP280;65385;55.772;37.658;2023-02-15T01:31:26;100045.59;;;-1.80
76541;BMP280;65385;55.772;37.658;2023-02-15T01:32:26;100033.44;;;-1.78
76541;BMP280;65385;55.772;37.658;2023-02-15T01:33:27;100043.69;;;-1.78
76541;BMP280;65385;55.772;37.658;2023-02-15T01:34:29;100056.34;;;-1.77
76541;BMP280;65385;55.772;37.658;2023-02-15T01:35:31;100038.41;;;-1.77
76541;BMP280;65385;55.772;37.658;2023-02-15T01:36:33;100055.19;;;-1.74
76541;BMP280;65385;55.772;37.658;2023-02-15T01:37:34;100041.78;;;-1.76
76541;BMP280;65385;55.772;37.658;2023-02-15T01:38:35;100035.84;;;-1.77
76541;BMP280;65385;55.772;37.658;2023-02-15T01:39:35;100027.19;;;-1.76
76541;BMP280;65385;55.772;37.658;2023-02-15T01:40:36;100032.94;;;-1.74
76541;BMP280;65385;55.772;37.658;2023-02-15T01:41:36;100034.69;;;-1.74
76541;BMP280;65385;55.772;37.658;2023-02-15T01:42:37;100021.44;;;-1.78
76541;BMP280;65385;55.772;37.658;2023-02-15T01:43:42;100031.53;;;-1.76
76541;BMP280;65385;55.772;37.658;2023-02-15T01:44:47;100057.31;;;-1.78
76541;BMP280;65385;55.772;37.658;2023-02-15T01:45:49;100026.41;;;-1.76
76541;BMP280;65385;55.772;37.658;2023-02-15T01:46:51;100047.84;;;-1.77
76541;BMP280;65385;55.772;37.658;2023-02-15T01:49:02;100035.34;;;-1.72
76541;BMP280;65385;55.772;37.658;2023-02-15T01:51:30;100050.06;;;-1.74
76541;BMP280;65385;55.772;37.658;2023-02-15T01:52:32;100043.03;;;-1.72
76541;BMP280;65385;55.772;37.658;2023-02-15T01:53:39;100051.38;;;-1.78
76541;BMP280;65385;55.772;37.658;2023-02-15T01:54:43;100030.06;;;-1.71
76541;BMP280;65385;55.772;37.658;2023-02-15T01:56:21;100053.94;;;-1.70
76541;BMP280;65385;55.772;37.658;2023-02-15T01:57:25;100042.88;;;-1.79
76541;BMP280;65385;55.772;37.658;2023-02-15T01:58:28;100036.81;;;-1.78
76541;BMP280;65385;55.772;37.658;2023-02-15T01:59:31;100044.50;;;-1.78
76541;BMP280;65385;55.772;37.658;2023-02-15T02:00:34;100056.00;;;-1.82
76541;BMP280;65385;55.772;37.658;2023-02-15T02:01:35;100059.88;;;-1.78
76541;BMP280;65385;55.772;37.658;2023-02-15T02:02:35;100045.59;;;-1.80
76541;BMP280;65385;55.772;37.658;2023-02-15T02:03:48;100045.59;;;-1.80
76541;BMP280;65385;55.772;37.658;2023-02-15T02:04:52;100031.19;;;-1.73
76541;BMP280;65385;55.772;37.658;2023-02-15T02:05:55;100069.63;;;-1.73
76541;BMP280;65385;55.772;37.658;2023-02-15T02:06:57;100050.72;;;-1.72
76541;BMP280;65385;55.772;37.658;2023-02-15T02:07:59;100052.63;;;-1.74
76541;BMP280;65385;55.772;37.658;2023-02-15T02:09:02;100050.41;;;-1.77
76541;BMP280;65385;55.772;37.658;2023-02-15T02:10:03;100066.75;;;-1.78
76541;BMP280;65385;55.772;37.658;2023-02-15T02:11:14;100061.63;;;-1.78
76541;BMP280;65385;55.772;37.658;2023-02-15T02:12:16;100051.22;;;-1.77
76541;BMP280;65385;55.772;37.658;2023-02-15T02:13:17;100045.75;;;-1.74
76541;BMP280;65385;55.772;37.658;2023-02-15T02:14:18;100075.22;;;-1.70
76541;BMP280;65385;55.772;37.658;2023-02-15T02:15:23;100034.53;;;-1.73
76541;BMP280;65385;55.772;37.658;2023-02-15T02:19:24;100063.22;;;-1.77
76541;BMP280;65385;55.772;37.658;2023-02-15T02:24:23;100078.13;;;-1.81
76541;BMP280;65385;55.772;37.658;2023-02-15T02:25:44;100049.13;;;-1.81
76541;BMP280;65385;55.772;37.658;2023-02-15T02:28:40;100059.38;;;-1.81
76541;BMP280;65385;55.772;37.658;2023-02-15T02:32:57;100057.47;;;-1.79
76541;BMP280;65385;55.772;37.658;2023-02-15T02:36:51;100075.56;;;-1.81
76541;BMP280;65385;55.772;37.658;2023-02-15T02:39:29;100070.75;;;-1.92
76541;BMP280;65385;55.772;37.658;2023-02-15T02:42:20;100065.81;;;-1.85
76541;BMP280;65385;55.772;37.658;2023-02-15T02:45:16;100053.63;;;-1.92
76541;BMP280;65385;55.772;37.658;2023-02-15T02:46:31;100080.19;;;-1.93
76541;BMP280;65385;55.772;37.658;2023-02-15T02:47:49;100055.84;;;-1.97
76541;BMP280;65385;55.772;37.658;2023-02-15T02:48:52;100062.41;;;-1.94
76541;BMP280;65385;55.772;37.658;2023-02-15T02:49:59;100058.91;;;-1.93
76541;BMP280;65385;55.772;37.658;2023-02-15T02:51:00;100069.00;;;-1.92
76541;BMP280;65385;55.772;37.658;2023-02-15T02:52:32;100067.69;;;-1.87
76541;BMP280;65385;55.772;37.658;2023-02-15T02:53:28;100074.72;;;-1.89
76541;BMP280;65385;55.772;37.658;2023-02-15T02:54:30;100082.41;;;-1.89
76541;BMP280;65385;55.772;37.658;2023-02-15T02:55:46;100073.78;;;-1.88
76541;BMP280;65385;55.772;37.658;2023-02-15T02:56:49;100096.53;;;-1.94
76541;BMP280;65385;55.772;37.658;2023-02-15T02:58:03;100069.31;;;-1.95
76541;BMP280;65385;55.772;37.658;2023-02-15T03:00:11;100061.31;;;-1.92
76541;BMP280;65385;55.772;37.658;2023-02-15T03:01:21;100070.59;;;-1.90
76541;BMP280;65385;55.772;37.658;2023-02-15T03:02:28;100049.75;;;-1.87
76541;BMP280;65385;55.772;37.658;2023-02-15T03:03:41;100082.75;;;-1.93
76541;BMP280;65385;55.772;37.658;2023-02-15T03:04:52;100081.47;;;-1.97
76541;BMP280;65385;55.772;37.658;2023-02-15T03:06:00;100080.50;;;-1.96
76541;BMP280;65385;55.772;37.658;2023-02-15T03:07:07;100081.47;;;-1.88
76541;BMP280;65385;55.772;37.658;2023-02-15T03:08:10;100084.66;;;-1.95
76541;BMP280;65385;55.772;37.658;2023-02-15T03:09:25;100090.59;;;-1.94
76541;BMP280;65385;55.772;37.658;2023-02-15T03:10:36;100076.84;;;-1.93
76541;BMP280;65385;55.772;37.658;2023-02-15T03:11:40;100063.88;;;-2.00
76541;BMP280;65385;55.772;37.658;2023-02-15T03:12:42;100085.63;;;-1.96
76541;BMP280;65385;55.772;37.658;2023-02-15T03:13:44;100084.66;;;-1.95
76541;BMP280;65385;55.772;37.658;2023-02-15T03:14:51;100086.44;;;-1.95
76541;BMP280;65385;55.772;37.658;2023-02-15T03:15:52;100093.66;;;-1.99
76541;BMP280;65385;55.772;37.658;2023-02-15T03:17:13;100086.94;;;-2.00
76541;BMP280;65385;55.772;37.658;2023-02-15T03:18:17;100075.38;;;-1.96
76541;BMP280;65385;55.772;37.658;2023-02-15T03:19:25;100086.28;;;-1.94
76541;BMP280;65385;55.772;37.658;2023-02-15T03:20:33;100081.81;;;-2.00
76541;BMP280;65385;55.772;37.658;2023-02-15T03:21:45;100107.72;;;-2.03
76541;BMP280;65385;55.772;37.658;2023-02-15T03:23:12;100091.41;;;-2.02
76541;BMP280;65385;55.772;37.658;2023-02-15T03:24:17;100056.19;;;-2.08
76541;BMP280;65385;55.772;37.658;2023-02-15T03:25:23;100095.88;;;-2.04
76541;BMP280;65385;55.772;37.658;2023-02-15T03:26:26;100084.69;;;-2.03
76541;BMP280;65385;55.772;37.658;2023-02-15T03:27:34;100074.13;;;-2.00
76541;BMP280;65385;55.772;37.658;2023-02-15T03:28:42;100106.28;;;-1.97
76541;BMP280;65385;55.772;37.658;2023-02-15T03:29:47;100099.88;;;-2.01
76541;BMP280;65385;55.772;37.658;2023-02-15T03:30:52;100084.69;;;-2.03
76541;BMP280;65385;55.772;37.658;2023-02-15T03:32:00;100074.13;;;-2.00
76541;BMP280;65385;55.772;37.658;2023-02-15T03:33:03;100079.56;;;-2.03
76541;BMP280;65385;55.772;37.658;2023-02-15T03:34:07;100084.69;;;-2.03
76541;BMP280;65385;55.772;37.658;2023-02-15T03:35:09;100095.06;;;-2.04
76541;BMP280;65385;55.772;37.658;2023-02-15T03:36:23;100106.78;;;-2.10
76541;BMP280;65385;55.772;37.658;2023-02-15T03:38:44;100105.16;;;-2.11
76541;BMP280;65385;55.772;37.658;2023-02-15T03:40:07;100085.97;;;-2.07
76541;BMP280;65385;55.772;37.658;2023-02-15T03:41:33;100084.69;;;-2.11
76541;BMP280;65385;55.772;37.658;2023-02-15T03:42:37;100082.91;;;-2.10
76541;BMP280;65385;55.772;37.658;2023-02-15T03:44:56;100079.56;;;-2.11
76541;BMP280;65385;55.772;37.658;2023-02-15T03:46:06;100083.06;;;-2.12
76541;BMP280;65385;55.772;37.658;2023-02-15T03:47:15;100060.06;;;-2.20
76541;BMP280;65385;55.772;37.658;2023-02-15T03:48:17;100104.84;;;-2.24
76541;BMP280;65385;55.772;37.658;2023-02-15T03:49:24;100076.69;;;-2.24
76541;BMP280;65385;55.772;37.658;2023-02-15T03:50:31;100090.91;;;-2.30
76541;BMP280;65385;55.772;37.658;2023-02-15T03:51:53;100092.34;;;-2.35
76541;BMP280;65385;55.772;37.658;2023-02-15T03:52:55;100100.34;;;-2.30
76541;BMP280;65385;55.772;37.658;2023-02-15T03:53:58;100086.72;;;-2.31
76541;BMP280;65385;55.772;37.658;2023-02-15T03:54:59;100081.44;;;-2.37
76541;BMP280;65385;55.772;37.658;2023-02-15T03:56:00;100094.91;;;-2.35
76541;BMP280;65385;55.772;37.658;2023-02-15T03:57:01;100084.00;;;-2.37
76541;BMP280;65385;55.772;37.658;2023-02-15T03:58:20;100086.28;;;-2.34
76541;BMP280;65385;55.772;37.658;2023-02-15T03:59:39;100106.09;;;-2.36
76541;BMP280;65385;55.772;37.658;2023-02-15T04:01:00;100108.50;;;-2.35
76541;BMP280;65385;55.772;37.658;2023-02-15T04:02:36;100090.59;;;-2.35
76541;BMP280;65385;55.772;37.658;2023-02-15T04:03:45;100103.53;;;-2.36
76541;BMP280;65385;55.772;37.658;2023-02-15T04:04:48;100096.50;;;-2.34
76541;BMP280;65385;55.772;37.658;2023-02-15T04:05:49;100076.47;;;-2.39
76541;BMP280;65385;55.772;37.658;2023-02-15T04:06:49;100121.75;;;-2.39
76541;BMP280;65385;55.772;37.658;2023-02-15T04:07:50;100108.81;;;-2.38
76541;BMP280;65385;55.772;37.658;2023-02-15T04:08:50;100117.44;;;-2.39
76541;BMP280;65385;55.772;37.658;2023-02-15T04:10:09;100075.22;;;-2.43
76541;BMP280;65385;55.772;37.658;2023-02-15T04:11:30;100110.56;;;-2.38
76541;BMP280;65385;55.772;37.658;2023-02-15T04:12:30;100122.72;;;-2.40
76541;BMP280;65385;55.772;37.658;2023-02-15T04:13:32;100087.88;;;-2.41
76541;BMP280;65385;55.772;37.658;2023-02-15T04:14:33;100100.00;;;-2.43
76541;BMP280;65385;55.772;37.658;2023-02-15T04:15:53;100093.75;;;-2.41
76541;BMP280;65385;55.772;37.658;2023-02-15T04:17:06;100081.94;;;-2.42
76541;BMP280;65385;55.772;37.658;2023-02-15T04:18:07;100108.66;;;-2.44
76541;BMP280;65385;55.772;37.658;2023-02-15T04:19:08;100112.16;;;-2.45
76541;BMP280;65385;55.772;37.658;2023-02-15T04:20:27;100106.38;;;-2.47
76541;BMP280;65385;55.772;37.658;2023-02-15T04:21:46;100059.69;;;-2.49
76541;BMP280;65385;55.772;37.658;2023-02-15T04:23:06;100109.44;;;-2.52
76541;BMP280;65385;55.772;37.658;2023-02-15T04:24:25;100105.13;;;-2.51
76541;BMP280;65385;55.772;37.658;2023-02-15T04:25:44;100101.91;;;-2.53
76541;BMP280;65385;55.772;37.658;2023-02-15T04:26:44;100074.06;;;-2.48
76541;BMP280;65385;55.772;37.658;2023-02-15T04:27:47;100099.66;;;-2.48
76541;BMP280;65385;55.772;37.658;2023-02-15T04:28:48;100099.66;;;-2.48
76541;BMP280;65385;55.772;37.658;2023-02-15T04:29:48;100123.03;;;-2.51
76541;BMP280;65385;55.772;37.658;2023-02-15T04:30:50;100087.19;;;-2.51
76541;BMP280;65385;55.772;37.658;2023-02-15T04:31:51;100091.50;;;-2.52
76541;BMP280;65385;55.772;37.658;2023-02-15T04:32:54;100128.16;;;-2.51
76541;BMP280;65385;55.772;37.658;2023-02-15T04:33:55;100111.19;;;-2.52
76541;BMP280;65385;55.772;37.658;2023-02-15T04:34:55;100107.16;;;-2.55
76541;BMP280;65385;55.772;37.658;2023-02-15T04:35:56;100101.25;;;-2.55
76541;BMP280;65385;55.772;37.658;2023-02-15T04:36:56;100120.94;;;-2.56
76541;BMP280;65385;55.772;37.658;2023-02-15T04:37:57;100099.69;;;-2.56
76541;BMP280;65385;55.772;37.658;2023-02-15T04:38:57;100106.69;;;-2.58
76541;BMP280;65385;55.772;37.658;2023-02-15T04:39:58;100110.72;;;-2.56
76541;BMP280;65385;55.772;37.658;2023-02-15T04:40:58;100105.09;;;-2.59
76541;BMP280;65385;55.772;37.658;2023-02-15T04:41:59;100100.94;;;-2.60
76541;BMP280;65385;55.772;37.658;2023-02-15T04:42:59;100098.22;;;-2.59
76541;BMP280;65385;55.772;37.658;2023-02-15T04:44:01;100120.31;;;-2.58
76541;BMP280;65385;55.772;37.658;2023-02-15T04:45:02;100117.09;;;-2.60
76541;BMP280;65385;55.772;37.658;2023-02-15T04:46:05;100125.28;;;-2.56
76541;BMP280;65385;55.772;37.658;2023-02-15T04:47:05;100114.22;;;-2.57
76541;BMP280;65385;55.772;37.658;2023-02-15T04:48:06;100120.16;;;-2.56
76541;BMP280;65385;55.772;37.658;2023-02-15T04:49:08;100113.44;;;-2.57
76541;BMP280;65385;55.772;37.658;2023-02-15T04:50:09;100085.28;;;-2.57
76541;BMP280;65385;55.772;37.658;2023-02-15T04:51:09;100111.50;;;-2.55
76541;BMP280;65385;55.772;37.658;2023-02-15T04:52:10;100073.59;;;-2.60
76541;BMP280;65385;55.772;37.658;2023-02-15T04:53:11;100093.09;;;-2.59
76541;BMP280;65385;55.772;37.658;2023-02-15T04:54:11;100107.00;;;-2.61
76541;BMP280;65385;55.772;37.658;2023-02-15T04:55:12;100111.03;;;-2.59
76541;BMP280;65385;55.772;37.658;2023-02-15T04:56:14;100121.56;;;-2.62
76541;BMP280;65385;55.772;37.658;2023-02-15T04:57:15;100106.84;;;-2.60
76541;BMP280;65385;55.772;37.658;2023-02-15T04:58:16;100106.38;;;-2.55
76541;BMP280;65385;55.772;37.658;2023-02-15T04:59:16;100113.06;;;-2.62
76541;BMP280;65385;55.772;37.658;2023-02-15T05:00:17;100110.38;;;-2.61
76541;BMP280;65385;55.772;37.658;2023-02-15T05:01:18;100105.59;;;-2.56
76541;BMP280;65385;55.772;37.658;2023-02-15T05:02:18;100107.81;;;-2.61
76541;BMP280;65385;55.772;37.658;2023-02-15T05:03:19;100122.66;;;-2.64
76541;BMP280;65385;55.772;37.658;2023-02-15T05:04:19;100119.94;;;-2.63
76541;BMP280;65385;55.772;37.658;2023-02-15T05:05:20;100126.16;;;-2.65
76541;BMP280;65385;55.772;37.658;2023-02-15T05:06:21;100068.91;;;-2.64
76541;BMP280;65385;55.772;37.658;2023-02-15T05:07:21;100114.84;;;-2.63
76541;BMP280;65385;55.772;37.658;2023-02-15T05:08:22;100111.78;;;-2.67
76541;BMP280;65385;55.772;37.658;2023-02-15T05:09:22;100119.75;;;-2.70
76541;BMP280;65385;55.772;37.658;2023-02-15T05:10:23;100118.63;;;-2.67
76541;BMP280;65385;55.772;37.658;2023-02-15T05:11:23;100112.06;;;-2.70
76541;BMP280;65385;55.772;37.658;2023-02-15T05:12:24;100140.22;;;-2.70
76541;BMP280;65385;55.772;37.658;2023-02-15T05:13:24;100127.91;;;-2.74
76541;BMP280;65385;55.772;37.658;2023-02-15T05:14:25;100108.72;;;-2.70
76541;BMP280;65385;55.772;37.658;2023-02-15T05:15:25;100100.88;;;-2.69
76541;BMP280;65385;55.772;37.658;2023-02-15T05:16:26;100110.81;;;-2.65
76541;BMP280;65385;55.772;37.658;2023-02-15T05:17:28;100121.69;;;-2.63
76541;BMP280;65385;55.772;37.658;2023-02-15T05:18:28;100119.75;;;-2.70
76541;BMP280;65385;55.772;37.658;2023-02-15T05:19:29;100145.69;;;-2.64
76541;BMP280;65385;55.772;37.658;2023-02-15T05:20:29;100123.63;;;-2.65
76541;BMP280;65385;55.772;37.658;2023-02-15T05:21:31;100119.75;;;-2.70
76541;BMP280;65385;55.772;37.658;2023-02-15T05:22:32;100133.00;;;-2.74
76541;BMP280;65385;55.772;37.658;2023-02-15T05:23:33;100117.16;;;-2.86
76541;BMP280;65385;55.772;37.658;2023-02-15T05:24:33;100134.91;;;-2.76
76541;BMP280;65385;55.772;37.658;2023-02-15T05:25:52;100130.31;;;-2.73
76541;BMP280;65385;55.772;37.658;2023-02-15T05:27:12;100157.94;;;-2.76
76541;BMP280;65385;55.772;37.658;2023-02-15T05:28:31;100111.59;;;-2.73
76541;BMP280;65385;55.772;37.658;2023-02-15T05:29:31;100103.78;;;-2.72
76541;BMP280;65385;55.772;37.658;2023-02-15T05:30:32;100128.84;;;-2.75
76541;BMP280;65385;55.772;37.658;2023-02-15T05:31:34;100143.25;;;-2.74
76541;BMP280;65385;55.772;37.658;2023-02-15T05:32:35;100126.44;;;-2.77
76541;BMP280;65385;55.772;37.658;2023-02-15T05:33:35;100144.84;;;-2.73
76541;BMP280;65385;55.772;37.658;2023-02-15T05:34:36;100125.50;;;-2.76
76541;BMP280;65385;55.772;37.658;2023-02-15T05:35:37;100125.00;;;-2.79
76541;BMP280;65385;55.772;37.658;2023-02-15T05:36:37;100146.59;;;-2.82
76541;BMP280;65385;55.772;37.658;2023-02-15T05:37:37;100135.25;;;-2.79
76541;BMP280;65385;55.772;37.658;2023-02-15T05:38:39;100123.88;;;-2.77
76541;BMP280;65385;55.772;37.658;2023-02-15T05:39:39;100117.38;;;-2.71
76541;BMP280;65385;55.772;37.658;2023-02-15T05:40:40;100134.78;;;-2.75
76541;BMP280;65385;55.772;37.658;2023-02-15T05:41:40;100117.66;;;-2.74
76541;BMP280;65385;55.772;37.658;2023-02-15T05:42:41;100147.84;;;-2.78
76541;BMP280;65385;55.772;37.658;2023-02-15T05:43:41;100134.44;;;-2.80
76541;BMP280;65385;55.772;37.658;2023-02-15T05:44:42;100142.75;;;-2.78
76541;BMP280;65385;55.772;37.658;2023-02-15T05:45:50;100129.66;;;-2.75
76541;BMP280;65385;55.772;37.658;2023-02-15T05:46:51;100148.03;;;-2.79
76541;BMP280;65385;55.772;37.658;2023-02-15T05:47:51;100144.34;;;-2.77
76541;BMP280;65385;55.772;37.658;2023-02-15T05:48:52;100170.56;;;-2.83
76541;BMP280;65385;55.772;37.658;2023-02-15T05:49:52;100149.47;;;-2.77
76541;BMP280;65385;55.772;37.658;2023-02-15T05:51:15;100136.34;;;-2.82
76541;BMP280;65385;55.772;37.658;2023-02-15T05:52:17;100095.91;;;-2.78
76541;BMP280;65385;55.772;37.658;2023-02-15T05:53:17;100138.78;;;-2.72
76541;BMP280;65385;55.772;37.658;2023-02-15T05:54:18;100154.75;;;-2.78
76541;BMP280;65385;55.772;37.658;2023-02-15T05:55:19;100149.47;;;-2.77
76541;BMP280;65385;55.772;37.658;2023-02-15T05:56:19;100173.44;;;-2.78
76541;BMP280;65385;55.772;37.658;2023-02-15T05:57:20;100121.94;;;-2.83
76541;BMP280;65385;55.772;37.658;2023-02-15T05:58:21;100157.31;;;-2.78
76541;BMP280;65385;55.772;37.658;2023-02-15T05:59:21;100162.72;;;-2.81
76541;BMP280;65385;55.772;37.658;2023-02-15T06:00:22;100177.94;;;-2.80
76541;BMP280;65385;55.772;37.658;2023-02-15T06:01:23;100165.94;;;-2.79
76541;BMP280;65385;55.772;37.658;2023-02-15T06:02:24;100148.66;;;-2.77
76541;BMP280;65385;55.772;37.658;2023-02-15T06:03:25;100171.38;;;-2.74
76541;BMP280;65385;55.772;37.658;2023-02-15T06:04:26;100167.06;;;-2.74
76541;BMP280;65385;55.772;37.658;2023-02-15T06:05:26;100175.69;;;-2.75
76541;BMP280;65385;55.772;37.658;2023-02-15T06:06:27;100161.47;;;-2.69
76541;BMP280;65385;55.772;37.658;2023-02-15T06:07:27;100178.78;;;-2.71
76541;BMP280;65385;55.772;37.658;2023-02-15T06:08:28;100167.22;;;-2.75
76541;BMP280;65385;55.772;37.658;2023-02-15T06:09:29;100159.88;;;-2.70
76541;BMP280;65385;55.772;37.658;2023-02-15T06:10:29;100167.41;;;-2.69
76541;BMP280;65385;55.772;37.658;2023-02-15T06:11:30;100180.06;;;-2.67
76541;BMP280;65385;55.772;37.658;2023-02-15T06:12:30;100167.41;;;-2.69
76541;BMP280;65385;55.772;37.658;2023-02-15T06:13:32;100185.97;;;-2.67
76541;BMP280;65385;55.772;37.658;2023-02-15T06:14:33;100158.34;;;-2.63
76541;BMP280;65385;55.772;37.658;2023-02-15T06:15:33;100168.72;;;-2.64
76541;BMP280;65385;55.772;37.658;2023-02-15T06:16:34;100191.91;;;-2.66
76541;BMP280;65385;55.772;37.658;2023-02-15T06:17:34;100184.38;;;-2.68
76541;BMP280;65385;55.772;37.658;2023-02-15T06:18:35;100170.84;;;-2.60
76541;BMP280;65385;55.772;37.658;2023-02-15T06:19:35;100158.47;;;-2.64
76541;BMP280;65385;55.772;37.658;2023-02-15T06:20:36;100180.25;;;-2.60
76541;BMP280;65385;55.772;37.658;2023-02-15T06:21:36;100181.81;;;-2.68
76541;BMP280;65385;55.772;37.658;2023-02-15T06:22:37;100169.00;;;-2.68